LBT11F DTMB-DTTA
Flight info
| Callsign | LBT11F |
|---|---|
| Flight time | N/A |
| Altitude | 14000 |
| Route | LARBI1A LARBI DCT GIBLI/N0326F130 DCT NIREM DCT |
| Aircraft | A320/M-SDE3FGHIRWY/LB1 |
Departure
| Time | 2026-04-14 15:07 |
|---|---|
| Airport | Monastir Habib Bourguiba International Airport (DTMB) |
Arrival
| Time | N/A |
|---|---|
| Airport | Tunis Carthage International Airport (DTTA) |
| Time | Latitude | Longitude | Altitude | Speed | Heading |
|---|---|---|---|---|---|
| 2026-04-14 14:39 | 35.76040 | 10.75528 | 17 ft | 0 kts | 343° |
| 2026-04-14 14:41 | 35.76039 | 10.75528 | 17 ft | 0 kts | 343° |
| 2026-04-14 14:58 | 35.76031 | 10.75531 | 17 ft | 2 kts | 343° |
| 2026-04-14 14:58 | 35.76015 | 10.75537 | 17 ft | 2 kts | 343° |
| 2026-04-14 14:59 | 35.75999 | 10.75543 | 18 ft | 2 kts | 340° |
| 2026-04-14 14:59 | 35.75983 | 10.75551 | 17 ft | 3 kts | 314° |
| 2026-04-14 14:59 | 35.75973 | 10.75569 | 17 ft | 3 kts | 279° |
| 2026-04-14 14:59 | 35.75972 | 10.75587 | 17 ft | 0 kts | 253° |
| 2026-04-14 15:01 | 35.75969 | 10.75576 | 17 ft | 4 kts | 253° |
| 2026-04-14 15:02 | 35.75949 | 10.75490 | 19 ft | 12 kts | 253° |
| 2026-04-14 15:02 | 35.75927 | 10.75398 | 17 ft | 10 kts | 253° |
| 2026-04-14 15:02 | 35.75902 | 10.75292 | 17 ft | 9 kts | 253° |
| 2026-04-14 15:02 | 35.75890 | 10.75243 | 18 ft | 9 kts | 253° |
| 2026-04-14 15:03 | 35.75872 | 10.75170 | 17 ft | 11 kts | 253° |
| 2026-04-14 15:03 | 35.75844 | 10.75055 | 18 ft | 14 kts | 253° |
| 2026-04-14 15:03 | 35.75819 | 10.74946 | 18 ft | 13 kts | 254° |
| 2026-04-14 15:03 | 35.75797 | 10.74844 | 18 ft | 12 kts | 259° |
| 2026-04-14 15:04 | 35.75788 | 10.74703 | 17 ft | 21 kts | 256° |
| 2026-04-14 15:04 | 35.75748 | 10.74534 | 17 ft | 20 kts | 253° |
| 2026-04-14 15:04 | 35.75710 | 10.74374 | 17 ft | 19 kts | 250° |
| 2026-04-14 15:04 | 35.75674 | 10.74226 | 18 ft | 17 kts | 255° |
| 2026-04-14 15:05 | 35.75644 | 10.74092 | 17 ft | 16 kts | 253° |
| 2026-04-14 15:05 | 35.75613 | 10.73970 | 17 ft | 14 kts | 253° |
| 2026-04-14 15:05 | 35.75576 | 10.73831 | 19 ft | 19 kts | 240° |
| 2026-04-14 15:05 | 35.75478 | 10.73824 | 18 ft | 14 kts | 161° |
| 2026-04-14 15:06 | 35.75421 | 10.73892 | 17 ft | 12 kts | 87° |
| 2026-04-14 15:06 | 35.75460 | 10.74068 | 16 ft | 48 kts | 73° |
| 2026-04-14 15:06 | 35.75626 | 10.74752 | 20 ft | 115 kts | 74° |
| 2026-04-14 15:06 | 35.75912 | 10.75886 | 140 ft | 153 kts | 71° |
| 2026-04-14 15:07 | 35.76153 | 10.77154 | 784 ft | 157 kts | 83° |
| 2026-04-14 15:07 | 35.75794 | 10.78480 | 1373 ft | 173 kts | 131° |
| 2026-04-14 15:07 | 35.74722 | 10.79252 | 1704 ft | 196 kts | 173° |
| 2026-04-14 15:07 | 35.73378 | 10.78861 | 2017 ft | 211 kts | 223° |
| 2026-04-14 15:08 | 35.72656 | 10.77345 | 2669 ft | 209 kts | 268° |
| 2026-04-14 15:08 | 35.73006 | 10.75674 | 3483 ft | 205 kts | 310° |
| 2026-04-14 15:08 | 35.74190 | 10.74712 | 4311 ft | 209 kts | 339° |
| 2026-04-14 15:08 | 35.75606 | 10.74240 | 5150 ft | 214 kts | 343° |
| 2026-04-14 15:09 | 35.77122 | 10.73730 | 5627 ft | 237 kts | 342° |
| 2026-04-14 15:09 | 35.78776 | 10.73103 | 6168 ft | 257 kts | 340° |
| 2026-04-14 15:09 | 35.80504 | 10.72396 | 6973 ft | 265 kts | 339° |
| 2026-04-14 15:09 | 35.82254 | 10.71638 | 7841 ft | 269 kts | 338° |
| 2026-04-14 15:10 | 35.84028 | 10.70841 | 8747 ft | 273 kts | 338° |
| 2026-04-14 15:10 | 35.85826 | 10.70016 | 9647 ft | 278 kts | 337° |
| 2026-04-14 15:10 | 35.87661 | 10.69161 | 10283 ft | 291 kts | 337° |
| 2026-04-14 15:10 | 35.89634 | 10.68232 | 10604 ft | 315 kts | 337° |
| 2026-04-14 15:11 | 35.91724 | 10.67249 | 11191 ft | 326 kts | 337° |
| 2026-04-14 15:11 | 35.93864 | 10.66247 | 11952 ft | 332 kts | 338° |
| 2026-04-14 15:11 | 35.96038 | 10.65235 | 12739 ft | 336 kts | 338° |
| 2026-04-14 15:11 | 35.98246 | 10.64208 | 13526 ft | 341 kts | 337° |
| 2026-04-14 15:12 | 36.00477 | 10.63171 | 14220 ft | 346 kts | 337° |
| 2026-04-14 15:12 | 36.02741 | 10.62115 | 14735 ft | 350 kts | 338° |
| 2026-04-14 15:12 | 36.05021 | 10.61047 | 14883 ft | 350 kts | 337° |
| 2026-04-14 15:12 | 36.07252 | 10.59997 | 14918 ft | 346 kts | 338° |
| 2026-04-14 15:13 | 36.09492 | 10.58944 | 14920 ft | 345 kts | 338° |
| 2026-04-14 15:13 | 36.11733 | 10.57892 | 14923 ft | 344 kts | 338° |
| 2026-04-14 15:13 | 36.13971 | 10.56842 | 14920 ft | 343 kts | 338° |
| 2026-04-14 15:13 | 36.16204 | 10.55794 | 14922 ft | 343 kts | 338° |
| 2026-04-14 15:14 | 36.18439 | 10.54744 | 14924 ft | 343 kts | 338° |
| 2026-04-14 15:14 | 36.20669 | 10.53695 | 14923 ft | 342 kts | 338° |
| 2026-04-14 15:14 | 36.22896 | 10.52646 | 14925 ft | 342 kts | 338° |
| 2026-04-14 15:14 | 36.25119 | 10.51589 | 14925 ft | 342 kts | 338° |
| 2026-04-14 15:15 | 36.27336 | 10.50531 | 14927 ft | 342 kts | 338° |
| 2026-04-14 15:15 | 36.29555 | 10.49468 | 14930 ft | 341 kts | 338° |
| 2026-04-14 15:15 | 36.31742 | 10.48422 | 14931 ft | 341 kts | 338° |
| 2026-04-14 15:15 | 36.33988 | 10.47348 | 14931 ft | 341 kts | 338° |
| 2026-04-14 15:16 | 36.36175 | 10.46315 | 14934 ft | 341 kts | 341° |
| 2026-04-14 15:16 | 36.38490 | 10.45675 | 14935 ft | 342 kts | 353° |
| 2026-04-14 15:16 | 36.40872 | 10.45666 | 14937 ft | 344 kts | 5° |
| 2026-04-14 15:16 | 36.43237 | 10.46096 | 14938 ft | 344 kts | 7° |
| 2026-04-14 15:17 | 36.45606 | 10.46539 | 14936 ft | 344 kts | 7° |
| 2026-04-14 15:17 | 36.47966 | 10.46975 | 14882 ft | 341 kts | 7° |
| 2026-04-14 15:17 | 36.50289 | 10.47400 | 14685 ft | 332 kts | 7° |
| 2026-04-14 15:17 | 36.52540 | 10.47809 | 14485 ft | 324 kts | 7° |
| 2026-04-14 15:18 | 36.54759 | 10.48212 | 14162 ft | 320 kts | 6° |
| 2026-04-14 15:18 | 36.56951 | 10.48611 | 13820 ft | 318 kts | 7° |
| 2026-04-14 15:18 | 36.59135 | 10.49008 | 13437 ft | 316 kts | 7° |
| 2026-04-14 15:18 | 36.61302 | 10.49402 | 13046 ft | 313 kts | 6° |
| 2026-04-14 15:19 | 36.63457 | 10.49793 | 12656 ft | 312 kts | 7° |
| 2026-04-14 15:19 | 36.65595 | 10.50183 | 12268 ft | 310 kts | 6° |
| 2026-04-14 15:19 | 36.67692 | 10.50567 | 11872 ft | 308 kts | 7° |
| 2026-04-14 15:19 | 36.69809 | 10.50953 | 11493 ft | 306 kts | 6° |
| 2026-04-14 15:20 | 36.71920 | 10.51240 | 11104 ft | 303 kts | 357° |
| 2026-04-14 15:20 | 36.73966 | 10.50766 | 10723 ft | 299 kts | 338° |
| 2026-04-14 15:20 | 36.75741 | 10.49466 | 10345 ft | 296 kts | 319° |
| 2026-04-14 15:20 | 36.77061 | 10.47523 | 9957 ft | 294 kts | 302° |
| 2026-04-14 15:21 | 36.78289 | 10.45542 | 9772 ft | 284 kts | 321° |
| 2026-04-14 15:21 | 36.80054 | 10.44574 | 9514 ft | 279 kts | 353° |
| 2026-04-14 15:21 | 36.81945 | 10.44973 | 9156 ft | 280 kts | 25° |
| 2026-04-14 15:21 | 36.83574 | 10.46319 | 8736 ft | 282 kts | 35° |
| 2026-04-14 15:22 | 36.85138 | 10.47781 | 8334 ft | 281 kts | 33° |
| 2026-04-14 15:22 | 36.86763 | 10.49116 | 7936 ft | 278 kts | 25° |
| 2026-04-14 15:22 | 36.88581 | 10.49796 | 7564 ft | 271 kts | 2° |
| 2026-04-14 15:22 | 36.90436 | 10.49604 | 7169 ft | 267 kts | 345° |
| 2026-04-14 15:23 | 36.92197 | 10.48892 | 6774 ft | 265 kts | 336° |
| 2026-04-14 15:23 | 36.93871 | 10.47955 | 6394 ft | 263 kts | 333° |
| 2026-04-14 15:23 | 36.95485 | 10.46892 | 5991 ft | 261 kts | 329° |
| 2026-04-14 15:23 | 36.97023 | 10.45722 | 5586 ft | 258 kts | 326° |
| 2026-04-14 15:24 | 36.98482 | 10.44424 | 5196 ft | 256 kts | 321° |
| 2026-04-14 15:24 | 36.99831 | 10.42998 | 4926 ft | 248 kts | 316° |
| 2026-04-14 15:24 | 37.01021 | 10.41508 | 4798 ft | 236 kts | 312° |
| 2026-04-14 15:24 | 37.02054 | 10.39985 | 4670 ft | 224 kts | 308° |
| 2026-04-14 15:25 | 37.02956 | 10.38447 | 4539 ft | 213 kts | 304° |
| 2026-04-14 15:25 | 37.03726 | 10.36930 | 4339 ft | 207 kts | 301° |
| 2026-04-14 15:25 | 37.04410 | 10.35365 | 4055 ft | 204 kts | 297° |
| 2026-04-14 15:25 | 37.05002 | 10.33764 | 3859 ft | 200 kts | 294° |
| 2026-04-14 15:26 | 37.05498 | 10.32164 | 3729 ft | 194 kts | 291° |
| 2026-04-14 15:26 | 37.05903 | 10.30580 | 3602 ft | 188 kts | 288° |
| 2026-04-14 15:26 | 37.06218 | 10.29017 | 3473 ft | 183 kts | 285° |
| 2026-04-14 15:26 | 37.06456 | 10.27474 | 3325 ft | 179 kts | 282° |
| 2026-04-14 15:27 | 37.06619 | 10.25933 | 3118 ft | 179 kts | 280° |
| 2026-04-14 15:27 | 37.06711 | 10.24376 | 2890 ft | 180 kts | 277° |
| 2026-04-14 15:27 | 37.06732 | 10.22814 | 2730 ft | 179 kts | 274° |
| 2026-04-14 15:27 | 37.06682 | 10.21268 | 2579 ft | 177 kts | 271° |
| 2026-04-14 15:28 | 37.06564 | 10.19734 | 2421 ft | 177 kts | 268° |
| 2026-04-14 15:28 | 37.06377 | 10.18216 | 2212 ft | 178 kts | 264° |
| 2026-04-14 15:28 | 37.06112 | 10.16691 | 2128 ft | 180 kts | 261° |
| 2026-04-14 15:28 | 37.05778 | 10.15173 | 2106 ft | 182 kts | 258° |
| 2026-04-14 15:29 | 37.05373 | 10.13675 | 2106 ft | 181 kts | 255° |
| 2026-04-14 15:29 | 37.04898 | 10.12210 | 2106 ft | 182 kts | 252° |
| 2026-04-14 15:29 | 37.04352 | 10.10776 | 2108 ft | 183 kts | 250° |
| 2026-04-14 15:29 | 37.03734 | 10.09376 | 2105 ft | 184 kts | 246° |
| 2026-04-14 15:30 | 37.03045 | 10.08013 | 2105 ft | 185 kts | 244° |
| 2026-04-14 15:30 | 37.02295 | 10.06705 | 2108 ft | 185 kts | 240° |
| 2026-04-14 15:30 | 37.01480 | 10.05445 | 2109 ft | 187 kts | 236° |
| 2026-04-14 15:30 | 37.00591 | 10.04229 | 2111 ft | 190 kts | 233° |
| 2026-04-14 15:31 | 36.99640 | 10.03080 | 2105 ft | 190 kts | 230° |
| 2026-04-14 15:31 | 36.98629 | 10.02001 | 2108 ft | 191 kts | 226° |
| 2026-04-14 15:31 | 36.97576 | 10.01008 | 2108 ft | 193 kts | 223° |
| 2026-04-14 15:31 | 36.96452 | 10.00074 | 2110 ft | 196 kts | 219° |
| 2026-04-14 15:32 | 36.95240 | 9.99268 | 2107 ft | 202 kts | 204° |
| 2026-04-14 15:32 | 36.93817 | 9.99112 | 2112 ft | 212 kts | 174° |
| 2026-04-14 15:32 | 36.92447 | 9.99821 | 2109 ft | 217 kts | 143° |
| 2026-04-14 15:32 | 36.91526 | 10.01218 | 2128 ft | 201 kts | 111° |
| 2026-04-14 15:33 | 36.91071 | 10.02872 | 2117 ft | 209 kts | 105° |
| 2026-04-14 15:33 | 36.90579 | 10.04611 | 2111 ft | 214 kts | 107° |
| 2026-04-14 15:33 | 36.90060 | 10.06359 | 2113 ft | 214 kts | 107° |
| 2026-04-14 15:33 | 36.89540 | 10.08100 | 2101 ft | 214 kts | 107° |
| 2026-04-14 15:34 | 36.89023 | 10.09840 | 2104 ft | 214 kts | 107° |
| 2026-04-14 15:34 | 36.88507 | 10.11591 | 2099 ft | 215 kts | 107° |
| 2026-04-14 15:34 | 36.87986 | 10.13372 | 1746 ft | 221 kts | 108° |
| 2026-04-14 15:34 | 36.87458 | 10.15180 | 1342 ft | 219 kts | 107° |
| 2026-04-14 15:35 | 36.86942 | 10.16933 | 1018 ft | 211 kts | 108° |
| 2026-04-14 15:35 | 36.86441 | 10.18574 | 684 ft | 199 kts | 112° |
| 2026-04-14 15:35 | 36.85952 | 10.20145 | 399 ft | 190 kts | 114° |
| 2026-04-14 15:35 | 36.85466 | 10.21683 | 412 ft | 201 kts | 114° |
| 2026-04-14 15:36 | 36.84919 | 10.23294 | 1304 ft | 204 kts | 113° |
| 2026-04-14 15:36 | 36.84286 | 10.24969 | 1695 ft | 223 kts | 114° |
| 2026-04-14 15:36 | 36.83585 | 10.26747 | 2212 ft | 231 kts | 114° |
| 2026-04-14 15:36 | 36.82861 | 10.28562 | 2888 ft | 236 kts | 114° |
| 2026-04-14 15:37 | 36.82119 | 10.30432 | 3388 ft | 249 kts | 114° |
| 2026-04-14 15:37 | 36.81304 | 10.32454 | 3632 ft | 273 kts | 118° |
| 2026-04-14 15:37 | 36.80019 | 10.34252 | 4056 ft | 284 kts | 147° |
| 2026-04-14 15:37 | 36.78208 | 10.35158 | 4706 ft | 281 kts | 173° |
| 2026-04-14 15:38 | 36.76263 | 10.35435 | 5340 ft | 282 kts | 176° |
| 2026-04-14 15:38 | 36.74304 | 10.35675 | 5938 ft | 284 kts | 176° |
| 2026-04-14 15:38 | 36.72330 | 10.35913 | 6505 ft | 286 kts | 176° |
| 2026-04-14 15:38 | 36.70340 | 10.36153 | 7069 ft | 288 kts | 176° |
| 2026-04-14 15:39 | 36.68338 | 10.36398 | 7612 ft | 290 kts | 176° |
| 2026-04-14 15:39 | 36.66325 | 10.36645 | 8170 ft | 292 kts | 176° |
| 2026-04-14 15:39 | 36.64294 | 10.36893 | 8688 ft | 294 kts | 176° |
| 2026-04-14 15:39 | 36.62241 | 10.37144 | 8905 ft | 297 kts | 176° |
| 2026-04-14 15:40 | 36.60191 | 10.37398 | 8943 ft | 296 kts | 176° |
| 2026-04-14 15:40 | 36.58138 | 10.37653 | 8938 ft | 296 kts | 176° |
| 2026-04-14 15:40 | 36.56084 | 10.37904 | 8946 ft | 296 kts | 176° |
| 2026-04-14 15:40 | 36.54034 | 10.38156 | 8938 ft | 296 kts | 176° |
| 2026-04-14 15:41 | 36.51983 | 10.38408 | 8941 ft | 297 kts | 176° |
| 2026-04-14 15:41 | 36.49930 | 10.38661 | 8936 ft | 296 kts | 176° |
| 2026-04-14 15:41 | 36.47879 | 10.38916 | 8939 ft | 296 kts | 176° |
| 2026-04-14 15:41 | 36.45828 | 10.39169 | 8945 ft | 296 kts | 176° |
| 2026-04-14 15:42 | 36.43776 | 10.39421 | 8942 ft | 296 kts | 176° |
| 2026-04-14 15:42 | 36.41753 | 10.39671 | 8940 ft | 296 kts | 176° |
| 2026-04-14 15:42 | 36.39711 | 10.39924 | 8942 ft | 295 kts | 176° |
| 2026-04-14 15:42 | 36.37666 | 10.40177 | 8930 ft | 296 kts | 176° |
| 2026-04-14 15:43 | 36.35622 | 10.40428 | 8932 ft | 295 kts | 176° |
| 2026-04-14 15:43 | 36.33574 | 10.40676 | 8935 ft | 296 kts | 176° |
| 2026-04-14 15:43 | 36.31528 | 10.40924 | 8931 ft | 296 kts | 176° |
| 2026-04-14 15:43 | 36.29474 | 10.41179 | 8933 ft | 296 kts | 175° |
| 2026-04-14 15:44 | 36.27503 | 10.41895 | 8929 ft | 298 kts | 153° |
| 2026-04-14 15:44 | 36.25889 | 10.43495 | 8923 ft | 299 kts | 129° |
| 2026-04-14 15:44 | 36.24912 | 10.45748 | 8923 ft | 298 kts | 104° |